This is the latest recevied weather packets stored in our database for station/object KC3DGM. If no packets are shown the sender has not sent any weather packets the latest 1 day(s).
| Time | Temp. | Humidity | Pressure | Rain* | Wind** | Luminosity | Snow |
|---|---|---|---|---|---|---|---|
| 1778023457 | 13.89° C | 97% | 979.6 hPa | 0 mm | 0 m/s | 2 W/m² | - |
| 1778023153 | 13.89° C | 97% | 979.6 hPa | 0 mm | 0 m/s | 2 W/m² | - |
| 1778022851 | 14.44° C | 97% | 979.8 hPa | 1.78 mm | 0.45 m/s, 275° | 0 W/m² | - |
| 1778022549 | 14.44° C | 97% | 979.4 hPa | 1.78 mm | 0 m/s | 9 W/m² | - |
| 1778022246 | 14.44° C | 95% | 979.5 hPa | 0 mm | 0.45 m/s, 278° | 18 W/m² | - |
| 1778021942 | 14.44° C | 95% | 979.4 hPa | 0 mm | 0.45 m/s, 278° | 18 W/m² | - |
| 1778021640 | 14.44° C | 95% | 979.3 hPa | 0 mm | 0.45 m/s, 278° | 18 W/m² | - |
| 1778021335 | 14.44° C | 95% | 979.6 hPa | 0 mm | 0.45 m/s, 278° | 18 W/m² | - |
| 1778021033 | 14.44° C | 95% | 979.3 hPa | 0 mm | 0.45 m/s, 278° | 18 W/m² | - |
| 1778020729 | 14.44° C | 95% | 979.3 hPa | 0 mm | 0.45 m/s, 278° | 18 W/m² | - |
| 1778020426 | 14.44° C | 95% | 979.4 hPa | 0 mm | 0.45 m/s, 278° | 18 W/m² | - |
| 1778020122 | 14.44° C | 95% | 979.5 hPa | 0 mm | 0.45 m/s, 278° | 18 W/m² | - |
| 1778019818 | 14.44° C | 93% | 979.5 hPa | 0 mm | 0 m/s | 6 W/m² | - |
| 1778019516 | 14.44° C | 93% | 979.7 hPa | 0 mm | 0 m/s | 6 W/m² | - |
| 1778019212 | 14.44° C | 92% | 979.8 hPa | 1.27 mm | 0 m/s | 8 W/m² | - |
| 1778018909 | 15° C | 91% | 979.5 hPa | 4.32 mm | 0 m/s | 14 W/m² | - |
| 1778018606 | 15° C | 89% | 979.6 hPa | 7.87 mm | 0.45 m/s, 275° | 30 W/m² | - |
| 1778018304 | 16.11° C | 85% | 979.9 hPa | 3.05 mm | 0.89 m/s, 248° | 10 W/m² | - |
| 1778018002 | 16.67° C | 81% | 979.3 hPa | 0 mm | 0.45 m/s, 277° | 7 W/m² | - |
| 1778017700 | 16.67° C | 79% | 979.1 hPa | 0 mm | 0.89 m/s, 282° | 16 W/m² | - |
| 1778017397 | 16.67° C | 79% | 979 hPa | 0 mm | 0.45 m/s, 277° | 25 W/m² | - |
| 1778017094 | 16.67° C | 78% | 978.7 hPa | 0 mm | 0.89 m/s, 271° | 38 W/m² | - |
| 1778016792 | 16.67° C | 78% | 978.6 hPa | 0 mm | 0 m/s | 15 W/m² | - |
| 1778016487 | 17.22° C | 78% | 978.8 hPa | 0 mm | 0 m/s | 39 W/m² | - |
| 1778016185 | 17.22° C | 78% | 978.7 hPa | 0 mm | 0.45 m/s, 277° | 75 W/m² | - |
* Rain latest hour (hover to see other rain measurements)
** Current wind speed in m/s (hover to see current wind gust speed)